Humidity-temperature Sensor

Selected Measurement Type: Relative Humidity

 
Relative Humidity [%]     6 entries per hour
Showing data from 5/1/2022 (00:00:00 Z) to 4/30/2022 (00:01:00 Z)
Previous Next [ Day | 3-Days | 7-Days ]
First Last
Prev [ Day | 3-Days | 7-Days ] Next
First Last

Start Time:     :
End Time:     :     
Time (in GMT) :00 :50 :40 :30 :20 :10
Previous Next [ Day | 3-Days | 7-Days ]
First Last
Prev [ Day | 3-Days | 7-Days ] Next
First Last


123 => good data
MM => data is determined as missing
-- => data not received/configured
Back to Top Back to Top
5/1/2022 00:00 to 23:10 90.61 91.42 91.13 90.66 89.98 89.71
4/30/2022 23:00 to 22:10 89.53 89.69 89.98 89.79 89.85 89.71
4/30/2022 22:00 to 21:10 89.71 90.51 91.52 92.24 93.70 95.44
4/30/2022 21:00 to 20:10 97.05 97.87 98.24 98.67 98.63 98.69
4/30/2022 20:00 to 19:10 98.20 97.87 97.56 97.21 96.53 94.99
4/30/2022 19:00 to 18:10 92.26 86.24 85.91 86.11 85.89 85.66
4/30/2022 18:00 to 17:10 86.38 87.02 87.20 87.78 87.57 87.61
4/30/2022 17:00 to 16:10 87.76 87.86 88.11 88.31 88.85 89.50
4/30/2022 16:00 to 15:10 89.26 88.66 88.07 88.03 88.44 88.66
4/30/2022 15:00 to 14:10 89.16 88.40 87.86 88.60 89.30 89.09
4/30/2022 14:00 to 13:10 89.20 88.77 88.66 88.74 88.70 88.72
4/30/2022 13:00 to 12:10 88.79 89.03 89.30 89.65 89.48 90.24
4/30/2022 12:00 to 11:10 92.03 93.74 95.05 95.24 95.03 94.46
4/30/2022 11:00 to 10:10 93.51 92.32 90.86 90.37 90.51 90.29
4/30/2022 10:00 to 9:10 90.10 90.53 90.92 91.19 90.94 91.03
4/30/2022 09:00 to 8:10 91.54 92.03 92.67 92.63 92.69 93.49
4/30/2022 08:00 to 7:10 93.33 93.41 92.79 92.57 92.75 92.73
4/30/2022 07:00 to 6:10 92.32 92.16 91.48 91.17 90.94 90.70
4/30/2022 06:00 to 5:10 90.98 91.25 91.09 90.94 90.24 90.61
4/30/2022 05:00 to 4:10 90.72 89.90 89.92 90.08 90.53 90.43
4/30/2022 04:00 to 3:10 90.31 90.18 90.22 90.24 90.27 90.18
4/30/2022 03:00 to 2:10 90.02 89.75 89.71 89.48 89.65 89.40
4/30/2022 02:00 to 1:10 89.59 89.96 90.43 89.98 89.73 89.40
4/30/2022 01:00 to 0:10 89.57 89.63 90.00 90.66 90.57 90.33